Time;durP1;ratioP1;P1;durP2;ratioP2;P2;SDS_P1;SDS_P2;PMS_P1;PMS_P2;Temp;Humidity;BMP_temperature;BMP_pressure;BME280_temperature;BME280_humidity;BME280_pressure;Samples;Min_cycle;Max_cycle;Signal;HPM_P1;HPM_P2
2021/03/17 00:00:33;;;;;;;31.63;17.13;;;3.00;92.90;;;;;;5095936;28;20050;-74
2021/03/17 00:02:59;;;;;;;32.38;19.83;;;3.10;92.70;;;;;;5097530;28;20454;-74
2021/03/17 00:05:33;;;;;;;35.20;18.83;;;3.10;92.70;;;;;;5097056;28;20020;-74
2021/03/17 00:07:58;;;;;;;30.55;17.42;;;3.10;92.70;;;;;;5095800;28;20024;-74
2021/03/17 00:10:27;;;;;;;38.33;19.25;;;3.10;92.70;;;;;;5097331;28;20069;-74
2021/03/17 00:12:55;;;;;;;29.23;17.50;;;3.00;92.80;;;;;;5097604;28;20017;-74
2021/03/17 00:15:22;;;;;;;26.13;18.13;;;3.00;92.80;;;;;;5096897;28;20020;-74
2021/03/17 00:17:48;;;;;;;28.85;18.10;;;3.00;92.70;;;;;;5096919;28;20119;-74
2021/03/17 00:20:15;;;;;;;37.78;22.00;;;3.00;92.80;;;;;;5097044;28;20458;-74
2021/03/17 00:22:40;;;;;;;33.08;18.52;;;3.00;93.00;;;;;;5096617;28;20470;-74
2021/03/17 00:25:08;;;;;;;31.70;18.27;;;3.00;92.90;;;;;;5095484;28;20066;-74
2021/03/17 00:27:33;;;;;;;27.27;18.95;;;3.00;92.90;;;;;;5096482;28;20488;-74
2021/03/17 00:29:59;;;;;;;34.13;20.98;;;3.00;92.90;;;;;;5096657;28;20020;-74
2021/03/17 00:32:25;;;;;;;32.72;18.00;;;2.90;92.90;;;;;;5096526;28;20024;-74
2021/03/17 00:34:52;;;;;;;38.30;18.75;;;3.00;92.80;;;;;;5096911;28;20113;-74
2021/03/17 00:37:17;;;;;;;27.00;18.55;;;3.00;92.90;;;;;;5096417;28;20052;-74
2021/03/17 00:39:43;;;;;;;38.50;21.77;;;2.90;92.90;;;;;;5095173;28;20078;-74
2021/03/17 00:42:09;;;;;;;38.33;21.63;;;2.90;93.00;;;;;;5096330;28;20107;-74
2021/03/17 00:44:35;;;;;;;31.08;18.10;;;2.90;92.90;;;;;;5096682;28;20358;-74
2021/03/17 00:47:01;;;;;;;33.78;19.15;;;2.90;93.00;;;;;;5096017;28;20052;-74
2021/03/17 00:49:26;;;;;;;32.08;18.38;;;2.90;93.00;;;;;;5094257;28;20020;-74
2021/03/17 00:51:52;;;;;;;32.50;18.13;;;3.00;93.00;;;;;;5096027;28;20024;-74
2021/03/17 00:54:19;;;;;;;29.63;18.42;;;3.00;93.00;;;;;;5096326;28;20028;-74
2021/03/17 00:56:44;;;;;;;36.33;20.13;;;3.00;92.90;;;;;;5096048;28;20032;-74
2021/03/17 00:59:10;;;;;;;31.55;18.77;;;2.90;93.00;;;;;;5095781;28;20082;-74
2021/03/17 01:01:35;;;;;;;28.98;18.65;;;2.90;93.00;;;;;;5095551;28;20052;-74
2021/03/17 01:04:01;;;;;;;26.85;17.55;;;2.90;93.00;;;;;;5095812;28;20107;-74
2021/03/17 01:06:27;;;;;;;29.98;17.77;;;2.90;93.00;;;;;;5095731;28;20028;-74
2021/03/17 01:08:52;;;;;;;31.00;18.73;;;2.90;93.00;;;;;;5094405;28;20017;-74
2021/03/17 01:11:18;;;;;;;37.25;18.95;;;2.90;93.10;;;;;;5094173;28;20028;-74
2021/03/17 01:13:44;;;;;;;36.15;19.33;;;2.90;93.10;;;;;;5095532;28;20374;-74
2021/03/17 01:16:10;;;;;;;36.25;18.73;;;2.90;93.20;;;;;;5094230;28;20051;-74
2021/03/17 01:18:36;;;;;;;36.45;19.85;;;2.90;93.20;;;;;;5095555;28;20024;-74
2021/03/17 01:21:02;;;;;;;31.20;17.83;;;2.80;93.40;;;;;;5094266;28;20028;-74
2021/03/17 01:23:27;;;;;;;32.03;18.90;;;2.80;93.30;;;;;;5094151;28;20024;-74
2021/03/17 01:25:53;;;;;;;28.98;16.02;;;2.80;93.40;;;;;;5095575;28;20024;-74
2021/03/17 01:28:19;;;;;;;31.75;18.10;;;2.80;93.20;;;;;;5095261;28;20051;-74
2021/03/17 01:30:48;;;;;;;35.78;18.88;;;2.90;93.60;;;;;;5095377;28;20028;-74
2021/03/17 01:33:15;;;;;;;36.35;19.67;;;2.90;93.30;;;;;;5095344;28;20027;-74
2021/03/17 01:35:45;;;;;;;32.47;16.20;;;2.80;93.40;;;;;;5095217;28;20469;-74
2021/03/17 01:38:11;;;;;;;;;;;2.90;93.30;;;;;;5095548;28;20055;-74
2021/03/17 01:40:39;;;;;;;34.53;18.80;;;2.90;93.30;;;;;;5094951;28;19927;-74
2021/03/17 01:43:05;;;;;;;27.75;15.93;;;2.80;93.50;;;;;;5095031;28;20457;-74
2021/03/17 01:45:31;;;;;;;32.05;16.73;;;2.90;93.30;;;;;;5095087;28;20086;-74
2021/03/17 01:47:57;;;;;;;28.75;15.40;;;2.90;93.40;;;;;;5093812;28;20027;-74
2021/03/17 01:50:37;;;;;;;31.00;15.40;;;2.90;93.30;;;;;;5095083;28;20020;-74
2021/03/17 01:53:12;;;;;;;29.55;17.95;;;3.00;93.30;;;;;;5095683;28;20020;-74
2021/03/17 01:55:39;;;;;;;36.08;18.67;;;2.90;93.50;;;;;;5094960;28;20024;-74
2021/03/17 01:58:05;;;;;;;34.85;18.25;;;2.90;93.40;;;;;;5095308;28;20020;-74
2021/03/17 02:00:32;;;;;;;25.42;15.30;;;2.90;93.40;;;;;;5094385;28;20486;-74
2021/03/17 02:02:58;;;;;;;33.65;17.15;;;3.00;93.40;;;;;;5094205;28;20028;-74
2021/03/17 02:05:28;;;;;;;29.20;15.98;;;3.00;93.40;;;;;;5093578;28;20031;-74
2021/03/17 02:07:55;;;;;;;35.60;18.77;;;3.00;93.30;;;;;;5094783;28;20056;-74
2021/03/17 02:10:22;;;;;;;29.98;16.38;;;3.00;93.40;;;;;;5094723;28;20478;-74
2021/03/17 02:12:53;;;;;;;41.05;18.33;;;3.00;93.40;;;;;;5094946;28;20161;-74
2021/03/17 02:15:56;;;;;;;36.78;18.80;;;3.00;93.50;;;;;;5093355;28;20404;-74
2021/03/17 02:18:39;;;;;;;38.95;18.40;;;3.00;93.60;;;;;;5093528;28;20028;-74
2021/03/17 02:21:38;;;;;;;35.75;17.40;;;2.90;93.70;;;;;;5094306;28;20030;-74
2021/03/17 02:24:31;;;;;;;31.58;16.40;;;3.00;93.50;;;;;;5094379;28;20016;-74
2021/03/17 02:27:34;;;;;;;46.78;19.60;;;3.00;93.40;;;;;;5065535;28;20032;-74
2021/03/17 02:30:21;;;;;;;29.13;18.00;;;2.90;93.70;;;;;;5093105;28;20020;-74
2021/03/17 02:32:59;;;;;;;35.30;18.15;;;2.90;93.70;;;;;;5093036;28;20108;-74
2021/03/17 02:35:30;;;;;;;30.73;17.48;;;2.90;93.60;;;;;;5094507;28;20068;-74
2021/03/17 02:37:56;;;;;;;;;;;2.90;93.70;;;;;;5095084;28;20513;-74
2021/03/17 02:40:32;;;;;;;31.02;17.20;;;2.90;93.80;;;;;;5094635;28;19908;-74
2021/03/17 02:43:09;;;;;;;34.78;18.10;;;2.90;93.70;;;;;;5093824;28;20055;-74
2021/03/17 02:45:38;;;;;;;31.48;17.67;;;2.90;93.80;;;;;;5092699;28;20106;-74
2021/03/17 02:48:28;;;;;;;36.80;18.75;;;2.90;93.80;;;;;;5093676;28;20024;-74
2021/03/17 02:50:55;;;;;;;34.55;15.50;;;2.90;93.80;;;;;;5092762;28;20031;-74
2021/03/17 02:53:26;;;;;;;36.38;17.48;;;3.00;93.80;;;;;;5092373;28;20028;-74
2021/03/17 02:55:58;;;;;;;31.35;18.20;;;3.00;93.80;;;;;;5093644;28;20028;-74
2021/03/17 02:58:24;;;;;;;28.25;16.52;;;3.00;93.80;;;;;;5094153;28;20470;-74
2021/03/17 03:00:51;;;;;;;32.03;17.38;;;3.00;93.70;;;;;;5093515;28;20125;-74
2021/03/17 03:03:18;;;;;;;25.83;15.95;;;3.00;93.70;;;;;;5092481;28;20028;-74
2021/03/17 03:05:45;;;;;;;25.75;15.48;;;3.10;93.60;;;;;;5092717;28;20031;-74
2021/03/17 03:08:11;;;;;;;36.10;17.67;;;3.10;93.60;;;;;;5092541;28;20444;-74
2021/03/17 03:10:40;;;;;;;26.63;15.05;;;3.10;93.50;;;;;;5093979;28;20103;-74
2021/03/17 03:13:06;;;;;;;39.17;19.08;;;3.10;93.50;;;;;;5093351;28;20020;-74
2021/03/17 03:15:35;;;;;;;42.22;20.20;;;3.10;93.80;;;;;;5093676;28;20046;-74
2021/03/17 03:18:04;;;;;;;29.17;16.33;;;3.00;93.80;;;;;;5093625;28;20036;-74
2021/03/17 03:20:35;;;;;;;35.17;18.83;;;3.10;93.70;;;;;;5093634;28;20024;-74
2021/03/17 03:23:02;;;;;;;33.20;17.25;;;3.10;93.80;;;;;;5093554;28;20021;-74
2021/03/17 03:25:28;;;;;;;35.50;17.55;;;3.00;93.80;;;;;;5093705;28;20067;-74
2021/03/17 03:27:55;;;;;;;37.70;17.95;;;3.00;93.80;;;;;;5093741;28;20765;-74
2021/03/17 03:30:25;;;;;;;35.80;16.77;;;3.00;93.80;;;;;;5093495;28;20024;-74
2021/03/17 03:32:52;;;;;;;31.40;16.42;;;3.10;93.80;;;;;;5092210;28;20174;-74
2021/03/17 03:35:19;;;;;;;35.92;17.38;;;3.10;93.80;;;;;;5092009;28;20078;-74
2021/03/17 03:37:45;;;;;;;27.70;16.00;;;3.10;93.70;;;;;;5093627;28;20016;-74
2021/03/17 03:40:17;;;;;;;29.38;15.98;;;3.10;93.70;;;;;;5092194;28;20522;-74
2021/03/17 03:42:44;;;;;;;43.53;19.20;;;3.10;93.70;;;;;;5093440;28;20032;-74
2021/03/17 03:45:14;;;;;;;30.83;17.08;;;3.00;93.90;;;;;;5091749;28;20043;-78
2021/03/17 03:47:40;;;;;;;31.77;18.13;;;3.00;93.90;;;;;;5092453;28;20030;-77
2021/03/17 03:50:08;;;;;;;34.50;17.25;;;3.00;94.10;;;;;;5092091;28;20016;-77
2021/03/17 03:52:40;;;;;;;31.50;17.40;;;2.90;94.10;;;;;;5093289;28;20024;-77
2021/03/17 03:55:19;;;;;;;31.92;17.08;;;2.90;94.10;;;;;;5093611;28;20070;-77
2021/03/17 03:57:47;;;;;;;31.83;17.00;;;2.90;94.20;;;;;;5092869;28;20020;-77
2021/03/17 04:00:20;;;;;;;37.65;18.98;;;2.90;94.00;;;;;;5092658;28;20036;-77
2021/03/17 04:02:48;;;;;;;34.55;17.15;;;2.90;94.30;;;;;;5092338;28;20083;-78
2021/03/17 04:05:21;;;;;;;32.88;17.65;;;2.90;94.10;;;;;;5092368;28;20024;-78
2021/03/17 04:07:49;;;;;;;38.15;18.90;;;3.00;94.10;;;;;;5090836;28;20051;-78
2021/03/17 04:10:16;;;;;;;30.58;17.95;;;2.90;94.30;;;;;;5091886;28;20023;-78
2021/03/17 04:12:44;;;;;;;37.40;18.52;;;2.90;94.30;;;;;;5091442;28;20032;-78
2021/03/17 04:15:14;;;;;;;36.17;18.30;;;2.90;94.40;;;;;;5093201;28;20020;-78
2021/03/17 04:17:48;;;;;;;36.90;16.75;;;2.90;94.40;;;;;;5093136;28;20024;-77
2021/03/17 04:20:17;;;;;;;33.70;17.27;;;2.90;94.30;;;;;;5093002;28;20032;-77
2021/03/17 04:22:45;;;;;;;33.67;18.27;;;2.90;94.30;;;;;;5092843;28;20032;-77
2021/03/17 04:25:14;;;;;;;36.42;17.75;;;2.90;94.30;;;;;;5094696;28;20016;-77
2021/03/17 04:27:43;;;;;;;40.60;21.02;;;2.90;94.30;;;;;;5096176;28;20024;-77
2021/03/17 04:30:10;;;;;;;33.90;18.17;;;2.90;94.40;;;;;;5095219;28;20024;-77
2021/03/17 04:32:39;;;;;;;33.83;17.27;;;2.90;94.40;;;;;;5096603;28;20101;-77
2021/03/17 04:35:06;;;;;;;39.72;17.85;;;2.90;94.50;;;;;;5096422;28;20024;-77
2021/03/17 04:37:35;;;;;;;38.80;17.92;;;3.00;94.30;;;;;;5096266;28;20039;-77
2021/03/17 04:40:02;;;;;;;48.13;21.00;;;2.90;94.40;;;;;;5096597;28;20367;-77
2021/03/17 04:42:28;;;;;;;36.50;17.65;;;2.80;94.90;;;;;;5094831;28;20038;-77
2021/03/17 04:44:55;;;;;;;36.67;18.23;;;2.80;94.80;;;;;;5096286;28;20374;-79
2021/03/17 04:47:21;;;;;;;40.20;18.30;;;2.90;94.60;;;;;;5094773;28;20073;-79
2021/03/17 04:49:49;;;;;;;47.00;22.02;;;2.90;94.70;;;;;;5096985;28;20024;-76
2021/03/17 04:52:17;;;;;;;33.97;17.42;;;2.90;94.90;;;;;;5097547;28;20469;-76
2021/03/17 04:54:44;;;;;;;33.97;16.88;;;2.90;94.80;;;;;;5094729;28;20130;-76
2021/03/17 04:57:14;;;;;;;37.00;18.90;;;2.90;94.80;;;;;;5096140;28;20028;-76
2021/03/17 04:59:41;;;;;;;38.50;18.27;;;2.90;94.80;;;;;;5094398;28;20031;-75
2021/03/17 05:02:10;;;;;;;39.22;19.65;;;2.90;94.80;;;;;;5095343;28;20284;-75
2021/03/17 05:04:38;;;;;;;35.30;16.70;;;2.90;94.90;;;;;;5095816;28;20059;-75
2021/03/17 05:07:06;;;;;;;38.58;19.10;;;3.00;94.70;;;;;;5094604;28;20031;-75
2021/03/17 05:09:33;;;;;;;43.53;20.88;;;2.90;95.00;;;;;;5094977;28;20123;-74
2021/03/17 05:12:03;;;;;;;38.33;18.65;;;2.90;95.10;;;;;;5095959;28;20020;-75
2021/03/17 05:14:31;;;;;;;48.13;25.15;;;2.90;95.00;;;;;;5095704;28;20153;-74
2021/03/17 05:17:00;;;;;;;68.35;34.38;;;2.90;95.00;;;;;;5095452;28;20032;-75
2021/03/17 05:19:26;;;;;;;52.47;28.95;;;2.90;94.90;;;;;;5095839;28;20073;-74
2021/03/17 05:21:52;;;;;;;41.17;22.45;;;2.80;95.20;;;;;;5095180;28;20027;-75
2021/03/17 05:24:18;;;;;;;50.97;25.05;;;2.90;95.00;;;;;;5094230;28;20029;-76
2021/03/17 05:26:44;;;;;;;60.20;27.52;;;2.90;95.30;;;;;;5093965;28;20024;-75
2021/03/17 05:29:11;;;;;;;61.10;32.75;;;2.90;95.00;;;;;;5095295;28;20050;-76
2021/03/17 05:31:38;;;;;;;48.53;25.50;;;2.90;95.00;;;;;;5093405;28;20027;-76
2021/03/17 05:34:03;;;;;;;41.50;21.10;;;2.90;95.10;;;;;;5095258;28;20838;-74
2021/03/17 05:36:31;;;;;;;56.13;25.55;;;2.90;95.10;;;;;;5094822;28;20028;-75
2021/03/17 05:38:56;;;;;;;74.38;38.35;;;2.90;95.20;;;;;;5094794;28;20028;-75
2021/03/17 05:41:22;;;;;;;68.30;33.90;;;2.80;95.40;;;;;;5094959;28;20020;-75
2021/03/17 05:43:48;;;;;;;61.00;29.70;;;2.80;95.40;;;;;;5093743;28;20020;-74
2021/03/17 05:46:15;;;;;;;50.80;25.50;;;2.80;95.60;;;;;;5094649;28;20024;-75
2021/03/17 05:48:42;;;;;;;73.03;39.33;;;2.80;95.50;;;;;;5094485;28;20024;-75
2021/03/17 05:51:08;;;;;;;114.18;66.32;;;2.80;95.40;;;;;;5094791;28;20044;-74
2021/03/17 05:53:34;;;;;;;95.45;52.17;;;2.80;95.50;;;;;;5093644;28;20039;-76
2021/03/17 05:56:01;;;;;;;66.85;34.90;;;2.90;95.40;;;;;;5093548;28;20028;-75
2021/03/17 05:58:27;;;;;;;58.03;27.02;;;2.90;95.30;;;;;;5093590;28;20114;-74
2021/03/17 06:00:52;;;;;;;47.50;20.95;;;2.90;95.70;;;;;;5094408;28;20036;-75
2021/03/17 06:03:20;;;;;;;49.88;24.50;;;3.00;95.40;;;;;;5094816;28;20035;-75
2021/03/17 06:05:47;;;;;;;59.30;27.33;;;2.90;95.80;;;;;;5093331;28;20020;-75
2021/03/17 06:08:14;;;;;;;87.22;38.53;;;2.90;95.50;;;;;;5093303;28;20024;-75
2021/03/17 06:10:41;;;;;;;64.90;29.92;;;2.90;96.00;;;;;;5094733;28;20423;-76
2021/03/17 06:13:15;;;;;;;46.85;24.10;;;2.80;96.00;;;;;;5093662;28;20035;-76
2021/03/17 06:15:51;;;;;;;49.72;22.35;;;2.90;95.80;;;;;;5093289;28;20020;-76
2021/03/17 06:18:22;;;;;;;62.95;27.38;;;2.90;96.00;;;;;;5094594;28;20024;-76
2021/03/17 06:20:48;;;;;;;52.75;23.63;;;2.70;96.90;;;;;;5093247;28;20162;-75
2021/03/17 06:23:14;;;;;;;54.72;24.20;;;2.70;96.40;;;;;;5094426;28;20016;-76
2021/03/17 06:25:44;;;;;;;71.30;28.92;;;2.70;96.70;;;;;;5093142;28;20031;-76
2021/03/17 06:28:11;;;;;;;77.15;27.77;;;2.70;97.00;;;;;;5093144;28;20024;-76
2021/03/17 06:30:37;;;;;;;58.97;25.23;;;2.70;96.70;;;;;;5093044;28;20023;-76
2021/03/17 06:33:04;;;;;;;88.55;31.40;;;2.70;96.60;;;;;;5094145;28;20099;-76
2021/03/17 06:35:30;;;;;;;54.80;23.52;;;2.70;96.90;;;;;;5092929;28;20024;-75
2021/03/17 06:37:56;;;;;;;50.47;21.13;;;2.70;97.00;;;;;;5094156;28;20078;-75
2021/03/17 06:40:23;;;;;;;48.42;21.85;;;2.70;96.80;;;;;;5094063;28;20024;-75
2021/03/17 06:42:49;;;;;;;57.65;21.17;;;2.70;96.70;;;;;;5094263;28;20046;-76
2021/03/17 06:45:31;;;;;;;53.22;23.23;;;2.80;96.60;;;;;;5094036;28;20027;-76
2021/03/17 06:48:16;;;;;;;48.72;21.17;;;2.70;96.70;;;;;;5089429;28;20023;-75
2021/03/17 06:50:42;;;;;;;51.50;22.80;;;2.70;96.70;;;;;;5092677;28;20024;-75
2021/03/17 06:53:07;;;;;;;60.22;25.92;;;2.70;96.70;;;;;;5093032;28;20026;-75
2021/03/17 06:55:33;;;;;;;61.42;25.02;;;2.70;96.70;;;;;;5092663;28;20117;-75
2021/03/17 06:57:59;;;;;;;45.38;21.73;;;2.70;96.70;;;;;;5093910;28;20098;-75
2021/03/17 07:00:27;;;;;;;42.95;19.05;;;2.70;96.60;;;;;;5093602;28;20048;-75
2021/03/17 07:03:01;;;;;;;45.25;20.70;;;2.80;96.40;;;;;;5093844;28;20024;-75
2021/03/17 07:05:42;;;;;;;48.83;19.45;;;2.80;96.60;;;;;;5092669;28;20027;-75
2021/03/17 07:08:30;;;;;;;43.97;20.65;;;2.80;96.50;;;;;;5092450;28;20427;-75
2021/03/17 07:11:01;;;;;;;42.17;20.08;;;2.80;96.50;;;;;;5092463;28;20422;-75
2021/03/17 07:13:28;;;;;;;38.25;18.70;;;2.70;96.50;;;;;;5093739;28;20031;-75
2021/03/17 07:15:55;;;;;;;38.17;18.42;;;2.80;96.40;;;;;;5093778;28;20024;-74
2021/03/17 07:18:29;;;;;;;45.90;19.58;;;2.80;96.20;;;;;;5093682;28;20047;-75
2021/03/17 07:21:00;;;;;;;49.05;20.17;;;2.90;96.20;;;;;;5092344;28;20065;-75
2021/03/17 07:23:40;;;;;;;45.88;20.17;;;2.80;96.20;;;;;;5093632;28;20423;-75
2021/03/17 07:26:21;;;;;;;38.42;17.60;;;2.90;96.10;;;;;;5093658;28;20027;-75
2021/03/17 07:29:12;;;;;;;46.00;19.85;;;2.90;96.20;;;;;;5092234;28;20070;-75
2021/03/17 07:31:39;;;;;;;40.05;17.15;;;2.90;96.10;;;;;;5093500;28;20055;-75
2021/03/17 07:34:27;;;;;;;36.97;16.98;;;2.90;96.10;;;;;;5093328;28;20020;-75
2021/03/17 07:36:54;;;;;;;35.65;16.65;;;2.90;95.90;;;;;;5093526;28;20065;-75
2021/03/17 07:39:28;;;;;;;42.38;17.90;;;2.80;96.00;;;;;;5093481;28;20034;-75
2021/03/17 07:41:56;;;;;;;30.55;15.43;;;2.80;96.10;;;;;;5093341;28;20039;-75
2021/03/17 07:44:22;;;;;;;34.80;15.15;;;2.80;96.00;;;;;;5092456;28;20028;-74
2021/03/17 07:47:00;;;;;;;38.40;17.70;;;2.90;95.90;;;;;;5092227;28;20016;-75
2021/03/17 07:49:28;;;;;;;34.88;17.13;;;2.80;96.00;;;;;;5094202;28;20024;-75
2021/03/17 07:51:56;;;;;;;29.27;14.68;;;2.80;96.20;;;;;;5092039;28;20027;-75
2021/03/17 07:54:36;;;;;;;37.80;18.25;;;2.80;96.00;;;;;;5092316;28;20234;-74
2021/03/17 07:57:06;;;;;;;44.33;16.25;;;2.70;96.20;;;;;;5092524;28;20032;-75
2021/03/17 07:59:33;;;;;;;33.60;16.77;;;2.80;96.10;;;;;;5094301;28;20028;-75
2021/03/17 08:01:59;;;;;;;49.92;22.13;;;2.70;96.20;;;;;;5096860;28;20045;-74
2021/03/17 08:04:29;;;;;;;40.53;18.63;;;2.60;96.40;;;;;;5097275;28;20020;-75
2021/03/17 08:07:04;;;;;;;;;;;2.60;96.40;;;;;;5097512;28;20016;-74
2021/03/17 08:09:31;;;;;;;55.35;22.88;;;2.60;96.50;;;;;;5097053;28;20381;-75
2021/03/17 08:12:08;;;;;;;65.65;23.17;;;2.70;96.40;;;;;;5095738;28;20024;-74
2021/03/17 08:14:36;;;;;;;65.82;22.85;;;2.80;96.30;;;;;;5095642;28;20031;-74
2021/03/17 08:17:02;;;;;;;68.63;24.70;;;2.80;96.40;;;;;;5096840;28;20024;-74
2021/03/17 08:19:31;;;;;;;58.97;23.90;;;2.80;96.30;;;;;;5095625;28;20513;-74
2021/03/17 08:21:59;;;;;;;65.25;26.40;;;2.70;96.50;;;;;;5097075;28;20020;-74
2021/03/17 08:24:33;;;;;;;61.03;25.08;;;2.70;96.50;;;;;;5095502;28;20016;-74
2021/03/17 08:27:01;;;;;;;38.28;18.90;;;2.60;96.60;;;;;;5096695;28;20103;-74
2021/03/17 08:29:39;;;;;;;41.95;18.50;;;2.70;96.60;;;;;;5096770;28;20478;-74
2021/03/17 08:32:07;;;;;;;37.55;18.90;;;2.70;96.40;;;;;;5095337;28;20023;-74
2021/03/17 08:34:34;;;;;;;32.05;15.65;;;2.70;96.90;;;;;;5096558;28;20033;-75
2021/03/17 08:37:04;;;;;;;30.55;15.25;;;2.70;96.70;;;;;;5095991;28;20048;-75
2021/03/17 08:39:30;;;;;;;33.88;15.27;;;2.70;96.70;;;;;;5096573;28;20020;-75
2021/03/17 08:41:57;;;;;;;27.23;14.32;;;2.80;96.80;;;;;;5095133;28;20051;-75
2021/03/17 08:44:29;;;;;;;28.80;14.13;;;2.80;96.60;;;;;;5095091;28;20027;-74
2021/03/17 08:46:57;;;;;;;32.25;15.60;;;2.90;96.60;;;;;;5095106;28;20020;-75
2021/03/17 08:49:35;;;;;;;35.15;15.60;;;2.80;96.70;;;;;;5096853;28;20620;-75
2021/03/17 08:52:08;;;;;;;28.73;13.35;;;2.80;96.60;;;;;;5096269;28;20103;-75
2021/03/17 08:54:34;;;;;;;26.45;14.10;;;2.90;96.60;;;;;;5094926;28;20020;-75
2021/03/17 08:57:05;;;;;;;29.90;13.13;;;3.00;96.50;;;;;;5094849;28;20066;-75
2021/03/17 08:59:50;;;;;;;28.92;15.00;;;3.00;96.50;;;;;;5096174;28;20032;-75
2021/03/17 09:02:21;;;;;;;30.25;15.32;;;3.00;96.40;;;;;;5094914;28;20488;-75
2021/03/17 09:04:58;;;;;;;23.38;12.93;;;2.90;96.50;;;;;;5095769;28;20028;-74
2021/03/17 09:07:34;;;;;;;28.05;13.98;;;3.00;96.40;;;;;;5094624;28;20020;-74
2021/03/17 09:10:06;;;;;;;29.25;14.55;;;2.90;96.50;;;;;;5093561;28;20051;-74
2021/03/17 09:12:35;;;;;;;24.23;12.85;;;2.90;96.70;;;;;;5096203;28;20054;-75
2021/03/17 09:15:10;;;;;;;24.45;12.68;;;3.00;96.60;;;;;;5094332;28;20427;-75
2021/03/17 09:17:43;;;;;;;19.02;11.05;;;3.00;96.60;;;;;;5095696;28;20061;-74
2021/03/17 09:20:29;;;;;;;28.23;13.50;;;3.20;96.50;;;;;;5094858;28;20028;-75
2021/03/17 09:22:57;;;;;;;17.77;10.48;;;3.10;96.30;;;;;;5094248;28;20058;-75
2021/03/17 09:25:43;;;;;;;20.60;11.85;;;3.20;96.40;;;;;;5094136;28;20523;-75
2021/03/17 09:28:18;;;;;;;16.92;10.73;;;3.20;96.10;;;;;;5095544;28;20081;-75
2021/03/17 09:31:03;;;;;;;18.98;10.25;;;3.20;96.10;;;;;;5093967;28;20024;-75
2021/03/17 09:33:34;;;;;;;21.13;12.50;;;3.30;96.00;;;;;;5094085;28;20024;-75
2021/03/17 09:36:07;;;;;;;17.83;11.20;;;3.20;96.10;;;;;;5095532;28;20020;-75
2021/03/17 09:38:36;;;;;;;26.27;12.00;;;3.30;96.00;;;;;;5093889;28;20130;-75
2021/03/17 09:41:12;;;;;;;18.15;11.35;;;3.30;96.10;;;;;;5094226;28;20056;-75
2021/03/17 09:43:45;;;;;;;19.15;9.70;;;3.40;95.90;;;;;;5093831;28;20020;-74
2021/03/17 09:46:31;;;;;;;22.88;12.30;;;3.40;95.80;;;;;;5094079;28;20065;-74
2021/03/17 09:49:00;;;;;;;18.95;11.05;;;3.40;95.80;;;;;;5093834;28;20021;-74
2021/03/17 09:51:29;;;;;;;19.83;12.05;;;3.30;95.90;;;;;;5094542;28;20358;-74
2021/03/17 09:53:58;;;;;;;18.58;10.60;;;3.30;96.10;;;;;;5093375;28;20473;-74
2021/03/17 09:56:35;;;;;;;19.45;11.20;;;3.40;96.00;;;;;;5095740;28;20054;-74
2021/03/17 09:59:28;;;;;;;17.20;10.65;;;3.40;95.90;;;;;;5094979;28;20078;-74
2021/03/17 10:02:02;;;;;;;20.65;11.68;;;3.40;95.80;;;;;;5094610;28;20050;-74
2021/03/17 10:04:32;;;;;;;18.70;10.02;;;3.50;95.80;;;;;;5093736;28;20060;-75
2021/03/17 10:06:59;;;;;;;15.98;9.63;;;3.50;95.80;;;;;;5093523;28;20370;-75
2021/03/17 10:09:30;;;;;;;16.13;10.50;;;3.60;95.80;;;;;;5093461;28;20442;-75
2021/03/17 10:12:01;;;;;;;14.52;10.48;;;3.60;95.70;;;;;;5095032;28;20028;-75
2021/03/17 10:14:27;;;;;;;15.18;9.88;;;3.50;95.70;;;;;;5093910;28;20024;-75
2021/03/17 10:16:55;;;;;;;13.32;9.18;;;3.60;95.80;;;;;;5093344;28;20024;-75
2021/03/17 10:19:21;;;;;;;13.52;9.10;;;3.60;95.70;;;;;;5093265;28;20422;-75
2021/03/17 10:21:48;;;;;;;16.02;9.65;;;3.60;96.10;;;;;;5094054;28;20182;-75
2021/03/17 10:24:14;;;;;;;15.68;10.60;;;3.60;95.70;;;;;;5092954;28;20024;-75
2021/03/17 10:26:40;;;;;;;16.58;9.95;;;3.50;95.80;;;;;;5093190;28;20028;-75
2021/03/17 10:29:08;;;;;;;17.85;11.15;;;3.60;95.80;;;;;;5094375;28;20055;-74
2021/03/17 10:31:35;;;;;;;13.98;9.82;;;3.50;95.90;;;;;;5093063;28;20031;-74
2021/03/17 10:34:01;;;;;;;16.38;10.07;;;3.40;95.90;;;;;;5094375;28;20031;-74
2021/03/17 10:36:36;;;;;;;13.90;9.13;;;3.30;96.10;;;;;;5092998;28;20028;-74
2021/03/17 10:39:02;;;;;;;16.17;10.10;;;3.40;96.00;;;;;;5094605;28;20566;-75
2021/03/17 10:41:48;;;;;;;18.55;10.85;;;3.40;95.90;;;;;;5093841;28;20035;-74
2021/03/17 10:44:19;;;;;;;12.07;9.18;;;3.30;96.10;;;;;;5093979;28;20032;-74
2021/03/17 10:47:03;;;;;;;17.02;9.00;;;3.40;96.10;;;;;;5092643;28;20024;-74
2021/03/17 10:49:30;;;;;;;18.38;9.43;;;3.50;96.00;;;;;;5093987;28;20020;-74
2021/03/17 10:51:57;;;;;;;19.00;9.70;;;3.50;96.00;;;;;;5092643;28;20104;-74
2021/03/17 10:54:37;;;;;;;14.88;8.90;;;3.50;95.90;;;;;;5093938;28;20095;-74
2021/03/17 10:57:03;;;;;;;15.38;9.98;;;3.40;96.10;;;;;;5092499;28;20031;-74
2021/03/17 10:59:34;;;;;;;14.13;8.85;;;3.40;96.10;;;;;;5093734;28;20032;-74
2021/03/17 11:02:19;;;;;;;14.57;8.88;;;3.50;96.10;;;;;;5093492;28;20052;-74
2021/03/17 11:05:03;;;;;;;16.05;10.30;;;3.50;95.90;;;;;;5093620;28;20020;-74
2021/03/17 11:07:46;;;;;;;17.30;11.25;;;3.30;96.00;;;;;;5092466;28;20024;-74
2021/03/17 11:10:31;;;;;;;19.27;11.63;;;3.20;96.10;;;;;;5093496;28;20539;-74
2021/03/17 11:13:21;;;;;;;18.77;11.27;;;3.20;96.30;;;;;;5092391;28;20393;-74
2021/03/17 11:15:48;;;;;;;16.23;10.33;;;3.20;96.20;;;;;;5092355;28;20028;-74
2021/03/17 11:18:20;;;;;;;14.50;9.38;;;3.30;96.40;;;;;;5092157;28;20256;-74
2021/03/17 11:20:47;;;;;;;12.95;8.90;;;3.30;96.50;;;;;;5092177;28;20035;-74
2021/03/17 11:23:17;;;;;;;13.77;9.25;;;3.40;96.30;;;;;;5093590;28;20025;-74
2021/03/17 11:25:44;;;;;;;20.90;12.65;;;3.50;96.10;;;;;;5092274;28;20020;-74
2021/03/17 11:28:15;;;;;;;17.27;10.75;;;3.30;96.30;;;;;;5093349;28;20103;-74
2021/03/17 11:30:43;;;;;;;15.98;9.93;;;3.20;96.50;;;;;;5092241;28;20020;-74
2021/03/17 11:33:11;;;;;;;19.73;11.57;;;3.30;96.30;;;;;;5093591;28;20024;-74
2021/03/17 11:35:37;;;;;;;24.73;12.02;;;3.30;96.60;;;;;;5096301;28;20027;-74
2021/03/17 11:38:03;;;;;;;15.38;10.32;;;3.30;96.50;;;;;;5097761;28;20024;-74
2021/03/17 11:40:28;;;;;;;16.15;10.07;;;3.30;96.50;;;;;;5096336;28;20028;-74
2021/03/17 11:43:22;;;;;;;13.95;10.13;;;3.30;96.60;;;;;;5097312;28;20028;-74
2021/03/17 11:45:51;;;;;;;15.60;9.95;;;3.40;96.50;;;;;;5096867;28;20482;-74
2021/03/17 11:48:17;;;;;;;22.00;10.60;;;3.40;96.80;;;;;;5097922;28;20091;-74
2021/03/17 11:50:50;;;;;;;17.10;9.10;;;3.40;96.70;;;;;;5097343;28;20024;-75
2021/03/17 11:53:17;;;;;;;14.40;9.30;;;3.40;96.60;;;;;;5096081;28;20363;-75
2021/03/17 11:55:44;;;;;;;16.08;9.98;;;3.60;96.50;;;;;;5097457;28;20017;-74
2021/03/17 11:58:10;;;;;;;13.68;8.77;;;3.60;96.70;;;;;;5097180;28;20024;-74
2021/03/17 12:00:37;;;;;;;13.50;9.32;;;3.70;96.40;;;;;;5095765;28;20116;-74
2021/03/17 12:03:03;;;;;;;11.10;8.35;;;3.60;96.40;;;;;;5096349;28;20055;-75
2021/03/17 12:05:28;;;;;;;10.65;7.95;;;3.70;96.40;;;;;;5097040;28;20454;-74
2021/03/17 12:07:54;;;;;;;13.75;9.77;;;3.80;96.30;;;;;;5096838;28;20039;-74
2021/03/17 12:10:20;;;;;;;13.25;8.68;;;3.70;96.30;;;;;;5095850;28;20024;-74
2021/03/17 12:12:46;;;;;;;16.42;9.93;;;3.70;96.30;;;;;;5097245;28;20020;-75
2021/03/17 12:15:16;;;;;;;16.48;10.25;;;3.60;96.40;;;;;;5097164;28;20036;-75
2021/03/17 12:17:43;;;;;;;17.35;9.15;;;3.70;96.40;;;;;;5097368;28;20035;-75
2021/03/17 12:20:09;;;;;;;10.93;8.18;;;3.60;96.40;;;;;;5095491;28;20035;-75
2021/03/17 12:22:36;;;;;;;15.52;9.10;;;3.60;96.40;;;;;;5096604;28;20024;-75
2021/03/17 12:25:04;;;;;;;16.35;8.55;;;3.60;96.40;;;;;;5096657;28;20079;-74
2021/03/17 12:27:30;;;;;;;11.75;7.90;;;3.70;96.30;;;;;;5096971;28;20016;-75
2021/03/17 12:29:56;;;;;;;12.80;7.90;;;3.70;96.40;;;;;;5095371;28;20070;-74
2021/03/17 12:32:22;;;;;;;11.93;8.27;;;3.80;96.20;;;;;;5096935;28;20466;-75
2021/03/17 12:34:47;;;;;;;10.93;8.02;;;3.70;96.10;;;;;;5096432;28;20103;-75
2021/03/17 12:37:13;;;;;;;12.23;8.32;;;3.60;96.10;;;;;;5095286;28;20031;-75
2021/03/17 12:39:39;;;;;;;13.52;7.43;;;3.60;96.20;;;;;;5096715;28;20034;-75
2021/03/17 12:42:06;;;;;;;12.20;8.10;;;3.70;96.10;;;;;;5095067;28;20119;-75
2021/03/17 12:44:33;;;;;;;12.40;8.40;;;3.70;96.20;;;;;;5096015;28;20530;-75
2021/03/17 12:47:00;;;;;;;13.07;8.90;;;3.70;96.20;;;;;;5094139;28;20020;-75
2021/03/17 12:49:28;;;;;;;17.73;9.75;;;3.70;96.30;;;;;;5096080;28;20020;-75
2021/03/17 12:51:54;;;;;;;17.63;11.65;;;3.70;96.30;;;;;;5094834;28;20054;-74